sensor_id;sensor_type;location;lat;lon;timestamp;pressure;altitude;pressure_sealevel;temperature;humidity
56334;BME280;42240;53.626;55.886;2023-01-28T00:00:56;79717.91;;;-145.10;100.00
56334;BME280;42240;53.626;55.886;2023-01-28T00:02:29;79723.84;;;-145.10;100.00
56334;BME280;42240;53.626;55.886;2023-01-28T00:04:03;79733.72;;;-145.10;100.00
56334;BME280;42240;53.626;55.886;2023-01-28T00:05:36;79719.88;;;-145.10;100.00
56334;BME280;42240;53.626;55.886;2023-01-28T00:07:09;79725.81;;;-145.10;100.00
56334;BME280;42240;53.626;55.886;2023-01-28T00:08:42;79721.84;;;-145.10;100.00
56334;BME280;42240;53.626;55.886;2023-01-28T00:10:15;79721.84;;;-145.10;100.00
56334;BME280;42240;53.626;55.886;2023-01-28T00:11:48;79713.94;;;-145.10;100.00
56334;BME280;42240;53.626;55.886;2023-01-28T00:13:21;79711.97;;;-145.10;100.00
56334;BME280;42240;53.626;55.886;2023-01-28T00:14:54;79708.00;;;-145.10;100.00
56334;BME280;42240;53.626;55.886;2023-01-28T00:16:27;79708.00;;;-145.10;100.00
56334;BME280;42240;53.626;55.886;2023-01-28T00:18:01;79719.88;;;-145.10;100.00
56334;BME280;42240;53.626;55.886;2023-01-28T00:19:35;79727.78;;;-145.10;100.00
56334;BME280;42240;53.626;55.886;2023-01-28T00:21:12;79727.78;;;-145.10;100.00
56334;BME280;42240;53.626;55.886;2023-01-28T00:22:47;79733.72;;;-145.10;100.00
56334;BME280;42240;53.626;55.886;2023-01-28T00:24:23;79729.78;;;-145.10;100.00
56334;BME280;42240;53.626;55.886;2023-01-28T00:26:01;79737.69;;;-145.10;100.00
56334;BME280;42240;53.626;55.886;2023-01-28T00:27:35;79759.47;;;-145.10;100.00
56334;BME280;42240;53.626;55.886;2023-01-28T00:29:08;79765.41;;;-145.10;100.00
56334;BME280;42240;53.626;55.886;2023-01-28T00:30:41;79775.28;;;-145.10;100.00
56334;BME280;42240;53.626;55.886;2023-01-28T00:32:14;79769.34;;;-145.10;100.00
56334;BME280;42240;53.626;55.886;2023-01-28T00:33:48;79761.44;;;-145.10;100.00
56334;BME280;42240;53.626;55.886;2023-01-28T00:35:21;79759.47;;;-145.10;100.00
56334;BME280;42240;53.626;55.886;2023-01-28T00:36:54;79765.41;;;-145.10;100.00
56334;BME280;42240;53.626;55.886;2023-01-28T00:38:30;79773.31;;;-145.10;100.00
56334;BME280;42240;53.626;55.886;2023-01-28T00:40:04;79779.25;;;-145.10;100.00
56334;BME280;42240;53.626;55.886;2023-01-28T00:41:37;79783.19;;;-145.10;100.00
56334;BME280;42240;53.626;55.886;2023-01-28T00:43:10;79789.13;;;-145.10;100.00
56334;BME280;42240;53.626;55.886;2023-01-28T00:44:44;79842.56;;;-145.10;100.00
56334;BME280;42240;53.626;55.886;2023-01-28T00:46:17;79787.16;;;-145.10;100.00
56334;BME280;42240;53.626;55.886;2023-01-28T00:47:51;79844.56;;;-145.10;100.00
56334;BME280;42240;53.626;55.886;2023-01-28T00:49:24;79783.19;;;-145.10;100.00
56334;BME280;42240;53.626;55.886;2023-01-28T00:50:57;79781.22;;;-145.10;100.00
56334;BME280;42240;53.626;55.886;2023-01-28T00:52:30;79785.19;;;-145.10;100.00
56334;BME280;42240;53.626;55.886;2023-01-28T00:54:03;79793.09;;;-145.10;100.00
56334;BME280;42240;53.626;55.886;2023-01-28T00:55:37;79793.09;;;-145.10;100.00
56334;BME280;42240;53.626;55.886;2023-01-28T00:57:10;79799.03;;;-145.10;100.00
56334;BME280;42240;53.626;55.886;2023-01-28T00:58:44;79804.97;;;-145.10;100.00
56334;BME280;42240;53.626;55.886;2023-01-28T01:00:17;79804.97;;;-145.10;100.00
56334;BME280;42240;53.626;55.886;2023-01-28T01:01:53;79808.94;;;-145.10;100.00
56334;BME280;42240;53.626;55.886;2023-01-28T01:03:26;79808.94;;;-145.10;100.00
56334;BME280;42240;53.626;55.886;2023-01-28T01:04:59;79810.91;;;-145.10;100.00
56334;BME280;42240;53.626;55.886;2023-01-28T01:06:35;79801.00;;;-145.10;100.00
56334;BME280;42240;53.626;55.886;2023-01-28T01:08:09;79797.06;;;-145.10;100.00
56334;BME280;42240;53.626;55.886;2023-01-28T01:09:42;79793.09;;;-145.10;100.00
56334;BME280;42240;53.626;55.886;2023-01-28T01:11:16;79783.19;;;-145.10;100.00
56334;BME280;42240;53.626;55.886;2023-01-28T01:12:49;79789.13;;;-145.10;100.00
56334;BME280;42240;53.626;55.886;2023-01-28T01:14:24;79783.19;;;-145.10;100.00
56334;BME280;42240;53.626;55.886;2023-01-28T01:16:01;79795.06;;;-145.10;100.00
56334;BME280;42240;53.626;55.886;2023-01-28T01:17:46;79781.22;;;-145.10;100.00
56334;BME280;42240;53.626;55.886;2023-01-28T01:19:20;79785.19;;;-145.10;100.00
56334;BME280;42240;53.626;55.886;2023-01-28T01:20:53;79793.09;;;-145.10;100.00
56334;BME280;42240;53.626;55.886;2023-01-28T01:22:34;79785.19;;;-145.10;100.00
56334;BME280;42240;53.626;55.886;2023-01-28T01:24:08;79795.06;;;-145.10;100.00
56334;BME280;42240;53.626;55.886;2023-01-28T01:25:41;79791.13;;;-145.10;100.00
56334;BME280;42240;53.626;55.886;2023-01-28T01:27:14;79787.16;;;-145.10;100.00
56334;BME280;42240;53.626;55.886;2023-01-28T01:28:47;79789.13;;;-145.10;100.00
56334;BME280;42240;53.626;55.886;2023-01-28T01:30:20;79785.19;;;-145.10;100.00
56334;BME280;42240;53.626;55.886;2023-01-28T01:31:53;79789.13;;;-145.10;100.00
56334;BME280;42240;53.626;55.886;2023-01-28T01:33:28;79787.16;;;-145.10;100.00
56334;BME280;42240;53.626;55.886;2023-01-28T01:35:04;79787.16;;;-145.10;100.00
56334;BME280;42240;53.626;55.886;2023-01-28T01:36:39;79783.19;;;-145.10;100.00
56334;BME280;42240;53.626;55.886;2023-01-28T01:38:15;79785.19;;;-145.10;100.00
56334;BME280;42240;53.626;55.886;2023-01-28T01:39:48;79793.09;;;-145.10;100.00
56334;BME280;42240;53.626;55.886;2023-01-28T01:41:29;79789.13;;;-145.10;100.00
56334;BME280;42240;53.626;55.886;2023-01-28T01:43:19;79793.09;;;-145.10;100.00
56334;BME280;42240;53.626;55.886;2023-01-28T01:46:37;79797.06;;;-145.10;100.00
56334;BME280;42240;53.626;55.886;2023-01-28T01:48:22;79854.44;;;-145.10;100.00
56334;BME280;42240;53.626;55.886;2023-01-28T01:49:57;79797.06;;;-145.10;100.00
56334;BME280;42240;53.626;55.886;2023-01-28T01:51:35;79886.13;;;-145.10;100.00
56334;BME280;42240;53.626;55.886;2023-01-28T01:53:13;79799.03;;;-145.10;100.00
56334;BME280;42240;53.626;55.886;2023-01-28T01:54:51;79801.00;;;-145.10;100.00
56334;BME280;42240;53.626;55.886;2023-01-28T01:56:34;79804.97;;;-145.10;100.00
56334;BME280;42240;53.626;55.886;2023-01-28T01:58:11;79801.00;;;-145.10;100.00
56334;BME280;42240;53.626;55.886;2023-01-28T01:59:45;79808.94;;;-145.10;100.00
56334;BME280;42240;53.626;55.886;2023-01-28T02:01:23;79816.84;;;-145.10;100.00
56334;BME280;42240;53.626;55.886;2023-01-28T02:02:58;79812.88;;;-145.10;100.00
56334;BME280;42240;53.626;55.886;2023-01-28T02:04:35;79888.09;;;-145.10;100.00
56334;BME280;42240;53.626;55.886;2023-01-28T02:06:11;79816.84;;;-145.10;100.00
56334;BME280;42240;53.626;55.886;2023-01-28T02:07:49;79804.97;;;-145.10;100.00
56334;BME280;42240;53.626;55.886;2023-01-28T02:09:26;79803.00;;;-145.10;100.00
56334;BME280;42240;53.626;55.886;2023-01-28T02:11:04;79866.31;;;-145.10;100.00
56334;BME280;42240;53.626;55.886;2023-01-28T02:12:56;79803.00;;;-145.10;100.00
56334;BME280;42240;53.626;55.886;2023-01-28T02:14:34;79804.97;;;-145.10;100.00
56334;BME280;42240;53.626;55.886;2023-01-28T02:16:09;79816.84;;;-145.10;100.00
56334;BME280;42240;53.626;55.886;2023-01-28T02:17:45;79818.81;;;-145.10;100.00
56334;BME280;42240;53.626;55.886;2023-01-28T02:19:20;79822.78;;;-145.10;100.00
56334;BME280;42240;53.626;55.886;2023-01-28T02:21:32;79818.81;;;-145.10;100.00
56334;BME280;42240;53.626;55.886;2023-01-28T02:23:37;79803.00;;;-145.10;100.00
56334;BME280;42240;53.626;55.886;2023-01-28T02:32:41;79860.38;;;-145.10;100.00
56334;BME280;42240;53.626;55.886;2023-01-28T02:34:50;79769.34;;;-145.10;100.00
56334;BME280;42240;53.626;55.886;2023-01-28T02:36:48;79769.34;;;-145.10;100.00
56334;BME280;42240;53.626;55.886;2023-01-28T02:38:31;79759.47;;;-145.10;100.00
56334;BME280;42240;53.626;55.886;2023-01-28T02:40:10;79743.63;;;-145.10;100.00
56334;BME280;42240;53.626;55.886;2023-01-28T02:41:51;79907.88;;;-145.10;100.00
56334;BME280;42240;53.626;55.886;2023-01-28T02:43:37;79717.91;;;-145.10;100.00
56334;BME280;42240;53.626;55.886;2023-01-28T02:45:21;79708.00;;;-145.10;100.00
56334;BME280;42240;53.626;55.886;2023-01-28T02:46:55;79702.06;;;-145.10;100.00
56334;BME280;42240;53.626;55.886;2023-01-28T02:48:46;79696.13;;;-145.10;100.00
56334;BME280;42240;53.626;55.886;2023-01-28T02:50:20;79686.25;;;-145.10;100.00
56334;BME280;42240;53.626;55.886;2023-01-28T02:52:15;79676.34;;;-145.10;100.00
56334;BME280;42240;53.626;55.886;2023-01-28T02:54:02;79694.16;;;-145.10;100.00
56334;BME280;42240;53.626;55.886;2023-01-28T03:01:41;79711.97;;;-145.10;100.00
56334;BME280;42240;53.626;55.886;2023-01-28T03:06:39;79785.19;;;-145.10;100.00
56334;BME280;42240;53.626;55.886;2023-01-28T03:08:13;79723.84;;;-145.10;100.00
56334;BME280;42240;53.626;55.886;2023-01-28T03:10:08;79733.72;;;-145.10;100.00
56334;BME280;42240;53.626;55.886;2023-01-28T03:13:47;79733.72;;;-145.10;100.00
56334;BME280;42240;53.626;55.886;2023-01-28T03:15:47;79729.78;;;-145.10;100.00
56334;BME280;42240;53.626;55.886;2023-01-28T03:20:03;79706.03;;;-145.10;100.00
56334;BME280;42240;53.626;55.886;2023-01-28T03:21:55;79797.06;;;-145.10;100.00
56334;BME280;42240;53.626;55.886;2023-01-28T03:25:48;79713.94;;;-145.10;100.00
56334;BME280;42240;53.626;55.886;2023-01-28T03:27:49;79729.78;;;-145.10;100.00
56334;BME280;42240;53.626;55.886;2023-01-28T03:29:46;79717.91;;;-145.10;100.00
56334;BME280;42240;53.626;55.886;2023-01-28T03:31:39;79713.94;;;-145.10;100.00
56334;BME280;42240;53.626;55.886;2023-01-28T03:33:31;79727.78;;;-145.10;100.00
56334;BME280;42240;53.626;55.886;2023-01-28T03:35:24;79711.97;;;-145.10;100.00
56334;BME280;42240;53.626;55.886;2023-01-28T03:37:19;79723.84;;;-145.10;100.00
56334;BME280;42240;53.626;55.886;2023-01-28T03:38:56;79717.91;;;-145.10;100.00
56334;BME280;42240;53.626;55.886;2023-01-28T03:40:30;79729.78;;;-145.10;100.00
56334;BME280;42240;53.626;55.886;2023-01-28T03:43:41;79729.78;;;-145.10;100.00
56334;BME280;42240;53.626;55.886;2023-01-28T03:45:17;79727.78;;;-145.10;100.00
56334;BME280;42240;53.626;55.886;2023-01-28T03:46:51;79725.81;;;-145.10;100.00
56334;BME280;42240;53.626;55.886;2023-01-28T03:48:25;79721.84;;;-145.10;100.00
56334;BME280;42240;53.626;55.886;2023-01-28T03:49:58;79723.84;;;-145.10;100.00
56334;BME280;42240;53.626;55.886;2023-01-28T03:51:34;79723.84;;;-145.10;100.00
56334;BME280;42240;53.626;55.886;2023-01-28T03:53:07;79725.81;;;-145.10;100.00
56334;BME280;42240;53.626;55.886;2023-01-28T03:54:57;79743.63;;;-145.10;100.00
56334;BME280;42240;53.626;55.886;2023-01-28T03:56:31;79731.75;;;-145.10;100.00
56334;BME280;42240;53.626;55.886;2023-01-28T03:58:05;79721.84;;;-145.10;100.00
56334;BME280;42240;53.626;55.886;2023-01-28T03:59:40;79735.72;;;-145.10;100.00
56334;BME280;42240;53.626;55.886;2023-01-28T04:01:13;79715.91;;;-145.10;100.00
56334;BME280;42240;53.626;55.886;2023-01-28T04:02:47;79743.63;;;-145.10;100.00
56334;BME280;42240;53.626;55.886;2023-01-28T04:04:23;79723.84;;;-145.10;100.00
56334;BME280;42240;53.626;55.886;2023-01-28T04:06:02;79721.84;;;-145.10;100.00
56334;BME280;42240;53.626;55.886;2023-01-28T04:07:54;79721.84;;;-145.10;100.00
56334;BME280;42240;53.626;55.886;2023-01-28T04:09:49;79715.91;;;-145.10;100.00
56334;BME280;42240;53.626;55.886;2023-01-28T04:11:30;79717.91;;;-145.10;100.00
56334;BME280;42240;53.626;55.886;2023-01-28T04:13:06;79721.84;;;-145.10;100.00
56334;BME280;42240;53.626;55.886;2023-01-28T04:14:39;79709.97;;;-145.10;100.00
56334;BME280;42240;53.626;55.886;2023-01-28T04:16:20;79700.09;;;-145.10;100.00
56334;BME280;42240;53.626;55.886;2023-01-28T04:17:53;79704.03;;;-145.10;100.00
56334;BME280;42240;53.626;55.886;2023-01-28T04:19:32;79692.16;;;-145.10;100.00
56334;BME280;42240;53.626;55.886;2023-01-28T04:21:11;79690.19;;;-145.10;100.00
56334;BME280;42240;53.626;55.886;2023-01-28T04:22:44;79682.28;;;-145.10;100.00
56334;BME280;42240;53.626;55.886;2023-01-28T04:24:19;79684.25;;;-145.10;100.00
56334;BME280;42240;53.626;55.886;2023-01-28T04:25:53;79676.34;;;-145.10;100.00
56334;BME280;42240;53.626;55.886;2023-01-28T04:27:27;79690.19;;;-145.10;100.00
56334;BME280;42240;53.626;55.886;2023-01-28T04:29:08;79690.19;;;-145.10;100.00
56334;BME280;42240;53.626;55.886;2023-01-28T04:30:43;79828.72;;;-145.10;100.00
56334;BME280;42240;53.626;55.886;2023-01-28T04:32:42;79690.19;;;-145.10;100.00
56334;BME280;42240;53.626;55.886;2023-01-28T04:34:29;79682.28;;;-145.10;100.00
56334;BME280;42240;53.626;55.886;2023-01-28T04:36:15;79725.81;;;-145.10;100.00
56334;BME280;42240;53.626;55.886;2023-01-28T04:38:09;79650.63;;;-145.10;100.00
56334;BME280;42240;53.626;55.886;2023-01-28T04:39:58;79654.56;;;-145.10;100.00
56334;BME280;42240;53.626;55.886;2023-01-28T04:41:54;79674.38;;;-145.10;100.00
56334;BME280;42240;53.626;55.886;2023-01-28T04:43:50;79688.22;;;-145.10;100.00
56334;BME280;42240;53.626;55.886;2023-01-28T04:45:36;79692.16;;;-145.10;100.00
56334;BME280;42240;53.626;55.886;2023-01-28T04:47:27;79670.41;;;-145.10;100.00
56334;BME280;42240;53.626;55.886;2023-01-28T04:49:26;79686.25;;;-145.10;100.00
56334;BME280;42240;53.626;55.886;2023-01-28T04:51:24;79674.38;;;-145.10;100.00
56334;BME280;42240;53.626;55.886;2023-01-28T04:53:21;79765.41;;;-145.10;100.00
56334;BME280;42240;53.626;55.886;2023-01-28T04:55:02;79630.81;;;-145.10;100.00
56334;BME280;42240;53.626;55.886;2023-01-28T04:56:35;79664.47;;;-145.10;100.00
56334;BME280;42240;53.626;55.886;2023-01-28T04:58:08;79630.81;;;-145.10;100.00
56334;BME280;42240;53.626;55.886;2023-01-28T04:59:42;79630.81;;;-145.10;100.00
56334;BME280;42240;53.626;55.886;2023-01-28T05:01:15;79630.81;;;-145.10;100.00
56334;BME280;42240;53.626;55.886;2023-01-28T05:02:49;79613.00;;;-145.10;100.00
56334;BME280;42240;53.626;55.886;2023-01-28T05:04:22;79595.22;;;-145.10;100.00
56334;BME280;42240;53.626;55.886;2023-01-28T05:05:57;79581.34;;;-145.10;100.00
56334;BME280;42240;53.626;55.886;2023-01-28T05:07:50;79565.53;;;-145.10;100.00
56334;BME280;42240;53.626;55.886;2023-01-28T05:09:24;79559.59;;;-145.10;100.00
56334;BME280;42240;53.626;55.886;2023-01-28T05:10:57;79549.69;;;-145.10;100.00
56334;BME280;42240;53.626;55.886;2023-01-28T05:12:30;79531.88;;;-145.10;100.00
56334;BME280;42240;53.626;55.886;2023-01-28T05:14:07;79531.88;;;-145.10;100.00
56334;BME280;42240;53.626;55.886;2023-01-28T05:15:54;79531.88;;;-145.10;100.00
56334;BME280;42240;53.626;55.886;2023-01-28T05:17:27;79510.13;;;-145.10;100.00
56334;BME280;42240;53.626;55.886;2023-01-28T05:19:01;79520.00;;;-145.10;100.00
56334;BME280;42240;53.626;55.886;2023-01-28T05:20:39;79500.22;;;-145.10;100.00
56334;BME280;42240;53.626;55.886;2023-01-28T05:22:12;79488.34;;;-145.10;100.00
56334;BME280;42240;53.626;55.886;2023-01-28T05:23:48;79472.53;;;-145.10;100.00
56334;BME280;42240;53.626;55.886;2023-01-28T05:25:22;79460.66;;;-145.10;100.00
56334;BME280;42240;53.626;55.886;2023-01-28T05:26:55;79456.69;;;-145.10;100.00
56334;BME280;42240;53.626;55.886;2023-01-28T05:28:29;79456.69;;;-145.10;100.00
56334;BME280;42240;53.626;55.886;2023-01-28T05:30:03;79456.69;;;-145.10;100.00
56334;BME280;42240;53.626;55.886;2023-01-28T05:31:38;79444.81;;;-145.10;100.00
56334;BME280;42240;53.626;55.886;2023-01-28T05:33:11;79436.91;;;-145.10;100.00
56334;BME280;42240;53.626;55.886;2023-01-28T05:34:44;79417.13;;;-145.10;100.00
56334;BME280;42240;53.626;55.886;2023-01-28T05:36:18;79407.22;;;-145.10;100.00
56334;BME280;42240;53.626;55.886;2023-01-28T05:37:52;79409.19;;;-145.10;100.00
56334;BME280;42240;53.626;55.886;2023-01-28T05:39:25;79440.84;;;-145.10;100.00
56334;BME280;42240;53.626;55.886;2023-01-28T05:40:58;79401.28;;;-145.10;100.00
56334;BME280;42240;53.626;55.886;2023-01-28T05:42:31;79407.22;;;-145.10;100.00
56334;BME280;42240;53.626;55.886;2023-01-28T05:44:25;79381.50;;;-145.10;100.00
56334;BME280;42240;53.626;55.886;2023-01-28T05:46:07;79385.44;;;-145.10;100.00
56334;BME280;42240;53.626;55.886;2023-01-28T05:47:59;79413.16;;;-145.10;100.00
56334;BME280;42240;53.626;55.886;2023-01-28T05:49:51;79405.25;;;-145.10;100.00
56334;BME280;42240;53.626;55.886;2023-01-28T05:51:42;79393.38;;;-145.10;100.00
56334;BME280;42240;53.626;55.886;2023-01-28T05:53:18;79373.56;;;-145.10;100.00
56334;BME280;42240;53.626;55.886;2023-01-28T05:54:52;79353.78;;;-145.10;100.00
56334;BME280;42240;53.626;55.886;2023-01-28T05:56:26;79345.88;;;-145.10;100.00
56334;BME280;42240;53.626;55.886;2023-01-28T05:57:59;79355.78;;;-145.10;100.00
56334;BME280;42240;53.626;55.886;2023-01-28T05:59:32;79365.66;;;-145.10;100.00
56334;BME280;42240;53.626;55.886;2023-01-28T06:01:06;79332.03;;;-145.10;100.00
56334;BME280;42240;53.626;55.886;2023-01-28T06:02:47;79322.13;;;-145.10;100.00
56334;BME280;42240;53.626;55.886;2023-01-28T06:04:20;79316.19;;;-145.10;100.00
56334;BME280;42240;53.626;55.886;2023-01-28T06:05:53;79322.13;;;-145.10;100.00
56334;BME280;42240;53.626;55.886;2023-01-28T06:07:26;79306.31;;;-145.10;100.00
56334;BME280;42240;53.626;55.886;2023-01-28T06:08:59;79341.91;;;-145.10;100.00
56334;BME280;42240;53.626;55.886;2023-01-28T06:10:35;79304.31;;;-145.10;100.00
56334;BME280;42240;53.626;55.886;2023-01-28T06:12:08;79306.31;;;-145.10;100.00
56334;BME280;42240;53.626;55.886;2023-01-28T06:13:55;79296.41;;;-145.10;100.00
56334;BME280;42240;53.626;55.886;2023-01-28T06:15:39;79296.41;;;-145.10;100.00
56334;BME280;42240;53.626;55.886;2023-01-28T06:17:35;79448.78;;;-145.10;100.00
56334;BME280;42240;53.626;55.886;2023-01-28T06:19:19;79290.47;;;-145.10;100.00
56334;BME280;42240;53.626;55.886;2023-01-28T06:20:52;79272.66;;;-145.10;100.00
56334;BME280;42240;53.626;55.886;2023-01-28T06:22:25;79282.56;;;-145.10;100.00
56334;BME280;42240;53.626;55.886;2023-01-28T06:23:58;79258.81;;;-145.10;100.00
56334;BME280;42240;53.626;55.886;2023-01-28T06:25:31;79262.78;;;-145.10;100.00
56334;BME280;42240;53.626;55.886;2023-01-28T06:27:10;79266.72;;;-145.10;100.00
56334;BME280;42240;53.626;55.886;2023-01-28T06:28:43;79244.97;;;-145.10;100.00
56334;BME280;42240;53.626;55.886;2023-01-28T06:30:16;79300.38;;;-145.10;100.00
56334;BME280;42240;53.626;55.886;2023-01-28T06:31:50;79241.00;;;-145.10;100.00
56334;BME280;42240;53.626;55.886;2023-01-28T06:33:23;79258.81;;;-145.10;100.00
56334;BME280;42240;53.626;55.886;2023-01-28T06:34:56;79254.84;;;-145.10;100.00
56334;BME280;42240;53.626;55.886;2023-01-28T06:36:29;79260.78;;;-145.10;100.00
56334;BME280;42240;53.626;55.886;2023-01-28T06:38:02;79266.72;;;-145.10;100.00
56334;BME280;42240;53.626;55.886;2023-01-28T06:39:36;79306.31;;;-145.10;100.00
56334;BME280;42240;53.626;55.886;2023-01-28T06:41:09;79278.59;;;-145.10;100.00
56334;BME280;42240;53.626;55.886;2023-01-28T06:42:42;79294.44;;;-145.10;100.00
56334;BME280;42240;53.626;55.886;2023-01-28T06:44:15;79286.50;;;-145.10;100.00
56334;BME280;42240;53.626;55.886;2023-01-28T06:45:48;79268.72;;;-145.10;100.00
56334;BME280;42240;53.626;55.886;2023-01-28T06:47:21;79270.69;;;-145.10;100.00
56334;BME280;42240;53.626;55.886;2023-01-28T06:48:54;79270.69;;;-145.10;100.00
56334;BME280;42240;53.626;55.886;2023-01-28T06:50:27;79264.75;;;-145.10;100.00
56334;BME280;42240;53.626;55.886;2023-01-28T06:52:00;79262.78;;;-145.10;100.00
56334;BME280;42240;53.626;55.886;2023-01-28T06:53:33;79320.16;;;-145.10;100.00
56334;BME280;42240;53.626;55.886;2023-01-28T06:55:07;79242.97;;;-145.10;100.00
56334;BME280;42240;53.626;55.886;2023-01-28T06:56:40;79229.13;;;-145.10;100.00
56334;BME280;42240;53.626;55.886;2023-01-28T06:58:14;79225.16;;;-145.10;100.00
56334;BME280;42240;53.626;55.886;2023-01-28T06:59:47;79219.25;;;-145.10;100.00
56334;BME280;42240;53.626;55.886;2023-01-28T07:01:20;79231.09;;;-145.10;100.00
56334;BME280;42240;53.626;55.886;2023-01-28T07:02:56;79217.25;;;-145.10;100.00
56334;BME280;42240;53.626;55.886;2023-01-28T07:04:30;79213.31;;;-145.10;100.00
56334;BME280;42240;53.626;55.886;2023-01-28T07:06:04;79205.38;;;-145.10;100.00
56334;BME280;42240;53.626;55.886;2023-01-28T07:07:37;79185.59;;;-145.10;100.00
56334;BME280;42240;53.626;55.886;2023-01-28T07:09:13;79173.72;;;-145.10;100.00
56334;BME280;42240;53.626;55.886;2023-01-28T07:10:46;79183.63;;;-145.10;100.00
56334;BME280;42240;53.626;55.886;2023-01-28T07:12:21;79213.31;;;-145.10;100.00
56334;BME280;42240;53.626;55.886;2023-01-28T07:13:54;79187.56;;;-145.10;100.00
56334;BME280;42240;53.626;55.886;2023-01-28T07:15:27;79209.34;;;-145.10;100.00
56334;BME280;42240;53.626;55.886;2023-01-28T07:17:00;79197.47;;;-145.10;100.00
56334;BME280;42240;53.626;55.886;2023-01-28T07:18:34;79217.25;;;-145.10;100.00
56334;BME280;42240;53.626;55.886;2023-01-28T07:20:09;79235.06;;;-145.10;100.00
56334;BME280;42240;53.626;55.886;2023-01-28T07:21:43;79239.03;;;-145.10;100.00
56334;BME280;42240;53.626;55.886;2023-01-28T07:23:16;79217.25;;;-145.10;99.60
56334;BME280;42240;53.626;55.886;2023-01-28T07:24:49;79183.63;;;-145.10;100.00
56334;BME280;42240;53.626;55.886;2023-01-28T07:26:23;79217.25;;;-145.10;98.96
56334;BME280;42240;53.626;55.886;2023-01-28T07:27:56;79181.63;;;-145.10;98.20
56334;BME280;42240;53.626;55.886;2023-01-28T07:29:29;79183.63;;;-145.10;97.86
56334;BME280;42240;53.626;55.886;2023-01-28T07:31:02;79235.06;;;-145.10;98.05
56334;BME280;42240;53.626;55.886;2023-01-28T07:32:35;79250.91;;;-145.10;98.35
56334;BME280;42240;53.626;55.886;2023-01-28T07:34:09;79233.09;;;-145.10;99.00
56334;BME280;42240;53.626;55.886;2023-01-28T07:35:43;79191.53;;;-145.10;99.04
56334;BME280;42240;53.626;55.886;2023-01-28T07:37:16;79207.38;;;-145.10;97.64
56334;BME280;42240;53.626;55.886;2023-01-28T07:38:49;79211.31;;;-145.10;97.34
56334;BME280;42240;53.626;55.886;2023-01-28T07:40:23;79215.28;;;-145.10;96.64
56334;BME280;42240;53.626;55.886;2023-01-28T07:41:56;79219.25;;;-145.10;96.31
56334;BME280;42240;53.626;55.886;2023-01-28T07:43:36;79199.44;;;-145.10;96.02
56334;BME280;42240;53.626;55.886;2023-01-28T07:45:09;79219.25;;;-145.10;94.97
56334;BME280;42240;53.626;55.886;2023-01-28T07:46:43;79207.38;;;-145.10;95.25
56334;BME280;42240;53.626;55.886;2023-01-28T07:48:16;79201.44;;;-145.10;95.57
56334;BME280;42240;53.626;55.886;2023-01-28T07:49:49;79252.88;;;-145.10;95.26
56334;BME280;42240;53.626;55.886;2023-01-28T07:51:22;79239.03;;;-145.10;95.39
56334;BME280;42240;53.626;55.886;2023-01-28T07:52:56;79233.09;;;-145.10;95.13
56334;BME280;42240;53.626;55.886;2023-01-28T07:54:30;79266.72;;;-145.10;95.14
56334;BME280;42240;53.626;55.886;2023-01-28T07:56:03;79286.50;;;-145.10;94.46
56334;BME280;42240;53.626;55.886;2023-01-28T07:57:56;79223.19;;;-145.10;94.95
56334;BME280;42240;53.626;55.886;2023-01-28T07:59:30;79197.47;;;-145.10;94.81
56334;BME280;42240;53.626;55.886;2023-01-28T08:01:03;79211.31;;;-145.10;94.21
56334;BME280;42240;53.626;55.886;2023-01-28T08:02:37;79159.88;;;-145.10;94.15
56334;BME280;42240;53.626;55.886;2023-01-28T08:04:10;79126.25;;;-145.10;93.24
56334;BME280;42240;53.626;55.886;2023-01-28T08:05:45;79120.31;;;-145.10;92.26
56334;BME280;42240;53.626;55.886;2023-01-28T08:07:20;79128.22;;;-145.10;91.13
56334;BME280;42240;53.626;55.886;2023-01-28T08:08:53;79239.03;;;-145.10;90.75
56334;BME280;42240;53.626;55.886;2023-01-28T08:10:26;79116.34;;;-145.10;90.54
56334;BME280;42240;53.626;55.886;2023-01-28T08:12:00;79100.53;;;-145.10;90.80
56334;BME280;42240;53.626;55.886;2023-01-28T08:13:34;79106.44;;;-145.10;89.70
56334;BME280;42240;53.626;55.886;2023-01-28T08:15:07;79078.75;;;-145.10;89.80
56334;BME280;42240;53.626;55.886;2023-01-28T08:16:40;79078.75;;;-145.10;89.36
56334;BME280;42240;53.626;55.886;2023-01-28T08:18:15;79092.59;;;-145.10;87.84
56334;BME280;42240;53.626;55.886;2023-01-28T08:19:48;79157.91;;;-145.10;88.67
56334;BME280;42240;53.626;55.886;2023-01-28T08:21:21;79167.78;;;-145.10;89.23
56334;BME280;42240;53.626;55.886;2023-01-28T08:23:15;79112.38;;;-145.10;89.94
56334;BME280;42240;53.626;55.886;2023-01-28T08:24:48;79138.09;;;-145.10;90.14
56334;BME280;42240;53.626;55.886;2023-01-28T08:26:21;79120.31;;;-145.10;90.50
56334;BME280;42240;53.626;55.886;2023-01-28T08:27:54;79134.16;;;-145.10;91.14
56334;BME280;42240;53.626;55.886;2023-01-28T08:29:27;79138.09;;;-145.10;91.81
56334;BME280;42240;53.626;55.886;2023-01-28T08:31:00;79161.84;;;-145.10;92.54
56334;BME280;42240;53.626;55.886;2023-01-28T08:32:34;79183.63;;;-145.10;92.75
56334;BME280;42240;53.626;55.886;2023-01-28T08:34:07;79187.56;;;-145.10;93.75
56334;BME280;42240;53.626;55.886;2023-01-28T08:35:40;79163.84;;;-145.10;93.90
56334;BME280;42240;53.626;55.886;2023-01-28T08:37:13;79225.16;;;-145.10;94.07
56334;BME280;42240;53.626;55.886;2023-01-28T08:38:50;79187.56;;;-145.10;95.46